createdAt,value
2019-05-28T00:01:13.047Z,19.87
2019-05-28T00:03:45.591Z,19.90
2019-05-28T00:06:18.046Z,19.92
2019-05-28T00:08:51.778Z,19.90
2019-05-28T00:11:24.081Z,19.89
2019-05-28T00:13:56.522Z,19.87
2019-05-28T00:16:28.749Z,19.95
2019-05-28T00:19:01.152Z,19.93
2019-05-28T00:21:33.440Z,19.93
2019-05-28T00:24:05.806Z,19.93
2019-05-28T00:26:38.162Z,19.86
2019-05-28T00:29:10.573Z,19.86
2019-05-28T00:31:42.694Z,19.84
2019-05-28T00:34:15.140Z,19.82
2019-05-28T00:36:47.594Z,19.84
2019-05-28T00:39:20.069Z,19.82
2019-05-28T00:41:52.339Z,19.78
2019-05-28T00:44:24.573Z,19.77
2019-05-28T00:46:56.889Z,19.78
2019-05-28T00:49:29.112Z,19.76
2019-05-28T00:52:01.581Z,19.75
2019-05-28T00:54:33.943Z,19.74
2019-05-28T00:57:06.864Z,19.72
2019-05-28T00:59:42.295Z,19.70
2019-05-28T01:02:14.543Z,19.71
2019-05-28T01:04:46.956Z,19.67
2019-05-28T01:07:19.245Z,19.63
2019-05-28T01:09:51.518Z,19.57
2019-05-28T01:12:24.478Z,19.60
2019-05-28T01:14:56.807Z,19.58
2019-05-28T01:17:28.947Z,19.56
2019-05-28T01:20:01.331Z,19.49
2019-05-28T01:22:34.894Z,19.46
2019-05-28T01:25:07.889Z,19.43
2019-05-28T01:27:41.773Z,19.36
2019-05-28T01:30:14.895Z,19.25
2019-05-28T01:32:47.128Z,19.24
2019-05-28T01:35:19.341Z,19.19
2019-05-28T01:37:51.718Z,19.20
2019-05-28T01:40:24.055Z,19.19
2019-05-28T01:42:56.422Z,19.22
2019-05-28T01:45:29.142Z,19.21
2019-05-28T01:48:01.500Z,19.15
2019-05-28T01:50:34.147Z,19.13
2019-05-28T01:53:06.651Z,19.04
2019-05-28T01:55:38.922Z,19.01
2019-05-28T01:58:11.218Z,19.06
2019-05-28T02:00:45.898Z,19.00
2019-05-28T02:03:18.737Z,18.99
2019-05-28T02:05:51.052Z,18.96
2019-05-28T02:08:23.257Z,18.98
2019-05-28T02:10:56.544Z,18.96
2019-05-28T02:13:29.072Z,19.01
2019-05-28T02:16:01.653Z,18.95
2019-05-28T02:18:34.048Z,18.96
2019-05-28T02:21:06.406Z,19.04
2019-05-28T02:23:38.719Z,19.07
2019-05-28T02:26:11.065Z,19.07
2019-05-28T02:28:43.445Z,19.06
2019-05-28T02:31:27.326Z,19.07
2019-05-28T02:33:50.075Z,19.03
2019-05-28T02:36:23.370Z,18.92
2019-05-28T02:38:55.591Z,18.99
2019-05-28T02:41:28.017Z,19.09
2019-05-28T02:44:00.252Z,19.06
2019-05-28T02:46:32.612Z,19.06
2019-05-28T02:49:04.847Z,19.07
2019-05-28T02:51:37.230Z,19.13
2019-05-28T02:54:10.087Z,19.12
2019-05-28T02:56:45.851Z,19.19
2019-05-28T02:59:19.156Z,19.12
2019-05-28T03:01:52.620Z,19.11
2019-05-28T03:04:25.901Z,19.17
2019-05-28T03:07:01.110Z,19.14
2019-05-28T03:09:34.946Z,19.22
2019-05-28T03:12:08.600Z,19.25
2019-05-28T03:14:40.888Z,19.28
2019-05-28T03:17:15.294Z,19.27
2019-05-28T03:19:47.799Z,19.26
2019-05-28T03:22:21.267Z,19.25
2019-05-28T03:24:54.087Z,19.35
2019-05-28T03:27:27.020Z,19.41
2019-05-28T03:29:59.401Z,19.43
2019-05-28T03:32:31.953Z,19.42
2019-05-28T03:35:06.178Z,19.43
2019-05-28T03:37:40.036Z,19.47
2019-05-28T03:40:14.103Z,19.53
2019-05-28T03:42:46.426Z,19.54
2019-05-28T03:45:18.742Z,19.57
2019-05-28T03:47:51.152Z,19.63
2019-05-28T03:50:23.623Z,19.63
2019-05-28T03:52:55.967Z,19.74
2019-05-28T03:55:28.275Z,19.77
2019-05-28T03:58:00.591Z,19.81
2019-05-28T04:00:32.930Z,19.82
2019-05-28T04:03:05.518Z,19.87
2019-05-28T04:05:37.614Z,19.92
2019-05-28T04:08:10.851Z,19.99
2019-05-28T04:10:45.247Z,20.05
2019-05-28T04:13:17.623Z,20.12
2019-05-28T04:15:50.102Z,20.18
2019-05-28T04:18:22.548Z,20.26
2019-05-28T04:20:54.831Z,20.30
2019-05-28T04:23:27.179Z,20.38
2019-05-28T04:26:00.587Z,20.45
2019-05-28T04:28:33.255Z,20.48
2019-05-28T04:31:05.691Z,20.45
2019-05-28T04:33:38.032Z,20.47
2019-05-28T04:36:10.438Z,20.46
2019-05-28T04:38:42.729Z,20.50
2019-05-28T04:41:14.918Z,20.53
2019-05-28T04:43:47.456Z,20.56
2019-05-28T04:46:19.755Z,20.64
2019-05-28T04:48:52.068Z,20.74
2019-05-28T04:51:24.969Z,20.76
2019-05-28T04:53:57.324Z,20.81
2019-05-28T04:56:29.746Z,20.89
2019-05-28T04:59:03.962Z,20.97
2019-05-28T05:01:35.933Z,21.00
2019-05-28T05:04:08.346Z,20.98
2019-05-28T05:06:40.701Z,21.01
2019-05-28T05:09:13.264Z,20.96
2019-05-28T05:11:45.741Z,21.01
2019-05-28T05:14:18.142Z,21.11
2019-05-28T05:16:50.344Z,21.19
2019-05-28T05:19:22.860Z,21.28
2019-05-28T05:21:55.097Z,21.39
2019-05-28T05:24:27.361Z,21.50
2019-05-28T05:26:59.689Z,21.66
2019-05-28T05:29:31.997Z,21.73
2019-05-28T05:32:04.417Z,21.80
2019-05-28T05:34:36.703Z,21.90
2019-05-28T05:37:09.046Z,22.00
2019-05-28T05:39:41.418Z,22.07
2019-05-28T05:42:13.781Z,22.18
2019-05-28T05:44:46.088Z,22.30
2019-05-28T05:47:18.417Z,22.45
2019-05-28T05:49:50.806Z,22.56
2019-05-28T05:52:23.062Z,22.55
2019-05-28T05:54:55.849Z,22.54
2019-05-28T05:57:28.261Z,22.57
2019-05-28T06:00:00.737Z,22.77
2019-05-28T06:02:32.994Z,22.96
2019-05-28T06:05:06.981Z,23.05
2019-05-28T06:07:39.427Z,23.14
2019-05-28T06:10:11.678Z,23.26
2019-05-28T06:12:45.023Z,23.31
2019-05-28T06:15:17.483Z,23.32
2019-05-28T06:17:49.753Z,23.32
2019-05-28T06:20:22.005Z,23.37
2019-05-28T06:22:55.471Z,23.57
2019-05-28T06:25:28.703Z,23.67
2019-05-28T06:28:02.974Z,23.69
2019-05-28T06:30:35.272Z,23.69
2019-05-28T06:33:07.681Z,23.75
2019-05-28T06:35:40.033Z,23.83
2019-05-28T06:38:12.391Z,23.88
2019-05-28T06:40:44.804Z,23.99
2019-05-28T06:43:17.092Z,24.12
2019-05-28T06:45:49.541Z,24.15
2019-05-28T06:48:21.846Z,24.31
2019-05-28T06:50:54.139Z,24.40
2019-05-28T06:53:26.677Z,24.45
2019-05-28T06:55:58.960Z,24.60
2019-05-28T06:58:39.302Z,24.70
2019-05-28T07:01:05.313Z,24.77
2019-05-28T07:03:37.522Z,24.85
2019-05-28T07:06:10.989Z,24.97
2019-05-28T07:08:43.351Z,24.98
2019-05-28T07:11:15.691Z,24.97
2019-05-28T07:13:48.021Z,25.12
2019-05-28T07:16:20.482Z,25.20
2019-05-28T07:18:52.747Z,25.26
2019-05-28T07:21:24.993Z,25.36
2019-05-28T07:23:59.345Z,25.42
2019-05-28T07:26:31.620Z,25.52
2019-05-28T07:29:04.041Z,25.58
2019-05-28T07:31:36.392Z,25.69
2019-05-28T07:34:11.391Z,25.74
2019-05-28T07:36:43.783Z,25.81
2019-05-28T07:39:16.010Z,25.98
2019-05-28T07:41:48.053Z,25.93
2019-05-28T07:44:20.431Z,25.98
2019-05-28T07:46:53.128Z,26.04
2019-05-28T07:49:25.464Z,26.13
2019-05-28T07:51:57.962Z,26.11
2019-05-28T07:54:34.056Z,26.22
2019-05-28T07:57:06.216Z,26.21
2019-05-28T07:59:38.615Z,26.17
2019-05-28T08:02:15.282Z,26.13
2019-05-28T08:04:48.010Z,26.16
2019-05-28T08:07:20.803Z,26.25
2019-05-28T08:09:53.136Z,26.25
2019-05-28T08:12:25.829Z,26.15
2019-05-28T08:14:58.053Z,26.23
2019-05-28T08:17:36.732Z,26.35
2019-05-28T08:20:13.494Z,26.52
2019-05-28T08:22:46.046Z,26.60
2019-05-28T08:25:33.038Z,26.63
2019-05-28T08:27:52.760Z,26.77
2019-05-28T08:30:25.141Z,26.80
2019-05-28T08:32:57.285Z,26.71
2019-05-28T08:35:29.755Z,26.90
2019-05-28T08:38:02.096Z,26.95
2019-05-28T08:40:35.395Z,26.88
2019-05-28T08:43:07.841Z,26.98
2019-05-28T08:45:42.640Z,27.12
2019-05-28T08:48:14.458Z,27.15
2019-05-28T08:50:46.910Z,27.08
2019-05-28T08:53:19.186Z,26.95
2019-05-28T08:55:51.299Z,27.03
2019-05-28T08:58:23.724Z,27.00
2019-05-28T09:00:56.001Z,27.17
2019-05-28T09:03:28.471Z,27.08
2019-05-28T09:06:00.737Z,27.28
2019-05-28T09:08:39.273Z,27.42
2019-05-28T09:11:07.819Z,27.45
2019-05-28T09:13:40.630Z,27.69
2019-05-28T09:16:13.266Z,27.70
2019-05-28T09:18:45.760Z,27.76
2019-05-28T09:21:17.895Z,28.09
2019-05-28T09:23:50.174Z,28.00
2019-05-28T09:26:22.372Z,27.71
2019-05-28T09:28:55.509Z,27.71
2019-05-28T09:31:28.410Z,27.70
2019-05-28T09:34:00.847Z,27.53
2019-05-28T09:36:33.144Z,28.07
2019-05-28T09:39:07.843Z,28.07
2019-05-28T09:41:40.081Z,27.95
2019-05-28T09:44:12.529Z,28.14
2019-05-28T09:46:44.883Z,28.33
2019-05-28T09:49:18.300Z,28.64
2019-05-28T09:51:50.564Z,28.86
2019-05-28T09:54:22.726Z,28.92
2019-05-28T09:56:54.936Z,29.03
2019-05-28T09:59:40.570Z,29.23
2019-05-28T10:02:01.826Z,29.37
2019-05-28T10:04:48.514Z,29.22
2019-05-28T10:07:09.292Z,29.15
2019-05-28T10:09:41.713Z,28.77
2019-05-28T10:12:14.021Z,28.95
2019-05-28T10:14:46.440Z,29.10
2019-05-28T10:17:18.789Z,29.24
2019-05-28T10:19:51.098Z,29.18
2019-05-28T10:22:23.367Z,29.06
2019-05-28T10:24:55.643Z,29.18
2019-05-28T10:27:28.898Z,29.26
2019-05-28T10:30:01.141Z,29.49
2019-05-28T10:32:34.544Z,29.55
2019-05-28T10:35:08.162Z,29.62
2019-05-28T10:37:40.459Z,29.44
2019-05-28T10:40:14.276Z,29.29
2019-05-28T10:42:47.738Z,29.52
2019-05-28T10:45:20.690Z,29.10
2019-05-28T10:47:54.028Z,29.00
2019-05-28T10:50:26.657Z,29.10
2019-05-28T10:53:00.026Z,29.35
2019-05-28T10:55:32.440Z,29.49
2019-05-28T10:58:05.370Z,29.21
2019-05-28T11:00:37.668Z,29.28
2019-05-28T11:03:09.908Z,29.20
2019-05-28T11:05:42.269Z,29.06
2019-05-28T11:08:15.627Z,29.26
2019-05-28T11:10:47.869Z,29.39
2019-05-28T11:13:20.065Z,29.37
2019-05-28T11:15:52.500Z,29.35
2019-05-28T11:18:24.844Z,29.43
2019-05-28T11:20:57.264Z,29.20
2019-05-28T11:23:29.691Z,29.31
2019-05-28T11:26:02.022Z,29.48
2019-05-28T11:28:34.492Z,29.76
2019-05-28T11:31:06.907Z,29.68
2019-05-28T11:33:39.099Z,29.04
2019-05-28T11:36:11.510Z,28.84
2019-05-28T11:38:44.113Z,28.76
2019-05-28T11:41:16.490Z,28.73
2019-05-28T11:43:48.812Z,28.48
2019-05-28T11:46:20.974Z,28.86
2019-05-28T11:48:53.478Z,28.80
2019-05-28T11:51:25.675Z,28.99
2019-05-28T11:53:58.029Z,29.17
2019-05-28T11:56:30.621Z,29.40
2019-05-28T11:59:02.884Z,29.63
2019-05-28T12:01:35.573Z,29.33
2019-05-28T12:04:08.060Z,29.33
2019-05-28T12:06:40.433Z,29.19
2019-05-28T12:09:12.807Z,29.18
2019-05-28T12:11:45.197Z,29.40
2019-05-28T12:14:17.670Z,29.59
2019-05-28T12:16:50.229Z,29.70
2019-05-28T12:19:22.527Z,29.94
2019-05-28T12:21:54.853Z,29.46
2019-05-28T12:24:28.646Z,28.59
2019-05-28T12:27:01.070Z,28.64
2019-05-28T12:29:33.367Z,28.51
2019-05-28T12:32:07.705Z,28.65
2019-05-28T12:34:39.768Z,28.69
2019-05-28T12:37:12.347Z,28.67
2019-05-28T12:39:44.742Z,28.65
2019-05-28T12:42:17.256Z,29.01
2019-05-28T12:45:05.508Z,29.06
2019-05-28T12:47:23.707Z,28.63
2019-05-28T12:50:14.459Z,28.88
2019-05-28T12:52:29.993Z,28.45
2019-05-28T12:55:03.171Z,28.52
2019-05-28T12:57:35.822Z,28.91
2019-05-28T13:00:13.543Z,29.19
2019-05-28T13:02:46.388Z,29.36
2019-05-28T13:05:21.833Z,29.65
2019-05-28T13:08:07.691Z,29.82
2019-05-28T13:10:28.436Z,29.42
2019-05-28T13:13:00.915Z,29.27
2019-05-28T13:15:34.421Z,29.24
2019-05-28T13:18:06.900Z,28.95
2019-05-28T13:20:39.132Z,28.50
2019-05-28T13:23:11.477Z,28.46
2019-05-28T13:25:44.113Z,28.19
2019-05-28T13:28:16.422Z,28.55
2019-05-28T13:30:49.159Z,28.85
2019-05-28T13:33:21.480Z,28.69
2019-05-28T13:35:53.945Z,28.42
2019-05-28T13:38:27.825Z,28.14
2019-05-28T13:41:00.476Z,27.99
2019-05-28T13:43:32.827Z,27.66
2019-05-28T13:46:05.339Z,27.94
2019-05-28T13:48:37.790Z,28.30
2019-05-28T13:51:10.277Z,28.59
2019-05-28T13:53:42.867Z,28.59
2019-05-28T13:56:15.150Z,28.71
2019-05-28T13:58:47.581Z,28.91
2019-05-28T14:01:19.904Z,29.07
2019-05-28T14:03:53.299Z,29.08
2019-05-28T14:06:25.717Z,28.59
2019-05-28T14:08:57.986Z,28.63
2019-05-28T14:11:30.249Z,28.72
2019-05-28T14:14:02.490Z,28.39
2019-05-28T14:16:34.879Z,28.14
2019-05-28T14:19:07.691Z,27.79
2019-05-28T14:21:40.030Z,27.79
2019-05-28T14:24:12.318Z,27.62
2019-05-28T14:26:44.499Z,27.82
2019-05-28T14:29:16.889Z,27.82
2019-05-28T14:31:48.910Z,27.80
2019-05-28T14:34:21.259Z,27.45
2019-05-28T14:36:54.560Z,27.45
2019-05-28T14:39:39.999Z,27.46
2019-05-28T14:42:00.797Z,27.45
2019-05-28T14:44:33.173Z,27.81
2019-05-28T14:47:05.689Z,28.36
2019-05-28T14:49:38.173Z,28.85
2019-05-28T14:52:10.658Z,29.16
2019-05-28T14:54:43.027Z,29.72
2019-05-28T14:57:15.441Z,29.78
2019-05-28T14:59:47.818Z,30.48
2019-05-28T15:02:21.135Z,30.88
2019-05-28T15:04:53.438Z,30.83
2019-05-28T15:07:25.741Z,31.14
2019-05-28T15:09:58.287Z,30.44
2019-05-28T15:12:31.370Z,30.50
2019-05-28T15:15:04.589Z,30.58
2019-05-28T15:17:37.087Z,30.61
2019-05-28T15:20:10.337Z,30.66
2019-05-28T15:22:43.946Z,30.64
2019-05-28T15:25:16.701Z,30.41
2019-05-28T15:27:49.029Z,30.32
2019-05-28T15:30:21.783Z,30.63
2019-05-28T15:32:54.578Z,30.87
2019-05-28T15:35:27.185Z,30.78
2019-05-28T15:37:59.656Z,30.15
2019-05-28T15:40:32.309Z,29.57
2019-05-28T15:43:06.645Z,29.13
2019-05-28T15:45:38.820Z,29.02
2019-05-28T15:48:11.223Z,28.99
2019-05-28T15:50:43.906Z,28.72
2019-05-28T15:53:16.388Z,28.32
2019-05-28T15:55:48.830Z,28.28
2019-05-28T15:58:21.075Z,27.77
2019-05-28T16:00:53.810Z,27.66
2019-05-28T16:03:26.716Z,27.63
2019-05-28T16:05:59.307Z,27.56
2019-05-28T16:08:31.747Z,27.47
2019-05-28T16:11:04.118Z,27.24
2019-05-28T16:13:36.438Z,27.26
2019-05-28T16:16:08.993Z,27.20
2019-05-28T16:18:41.408Z,27.16
2019-05-28T16:21:13.888Z,27.04
2019-05-28T16:23:46.316Z,27.03
2019-05-28T16:26:18.747Z,26.99
2019-05-28T16:28:51.396Z,26.91
2019-05-28T16:31:23.905Z,26.82
2019-05-28T16:33:57.182Z,26.71
2019-05-28T16:36:29.709Z,26.70
2019-05-28T16:39:02.076Z,26.66
2019-05-28T16:41:36.112Z,26.65
2019-05-28T16:44:08.712Z,26.51
2019-05-28T16:46:41.061Z,26.45
2019-05-28T16:49:14.532Z,26.39
2019-05-28T16:51:46.859Z,26.26
2019-05-28T16:54:19.843Z,26.25
2019-05-28T16:56:52.317Z,26.14
2019-05-28T16:59:25.592Z,26.15
2019-05-28T17:01:58.016Z,26.09
2019-05-28T17:04:31.474Z,26.06
2019-05-28T17:07:03.878Z,25.98
2019-05-28T17:09:36.425Z,25.87
2019-05-28T17:12:08.972Z,25.79
2019-05-28T17:14:41.141Z,25.70
2019-05-28T17:17:13.487Z,25.63
2019-05-28T17:19:48.582Z,25.61
2019-05-28T17:22:21.228Z,25.55
2019-05-28T17:24:53.801Z,25.51
2019-05-28T17:27:26.368Z,25.44
2019-05-28T17:30:15.992Z,25.31
2019-05-28T17:32:32.928Z,25.29
2019-05-28T17:35:07.350Z,25.23
2019-05-28T17:37:39.766Z,25.20
2019-05-28T17:40:12.105Z,25.14
2019-05-28T17:42:44.756Z,25.06
2019-05-28T17:45:17.485Z,24.96
2019-05-28T17:47:50.900Z,24.90
2019-05-28T17:50:23.308Z,24.88
2019-05-28T17:52:55.766Z,24.81
2019-05-28T17:55:28.269Z,24.74
2019-05-28T17:58:00.604Z,24.64
2019-05-28T18:00:33.046Z,24.58
2019-05-28T18:03:05.449Z,24.50
2019-05-28T18:05:37.615Z,24.47
2019-05-28T18:08:09.997Z,24.35
2019-05-28T18:10:44.308Z,24.34
2019-05-28T18:13:16.474Z,24.21
2019-05-28T18:15:48.773Z,24.19
2019-05-28T18:18:21.117Z,24.14
2019-05-28T18:20:53.433Z,24.06
2019-05-28T18:23:25.914Z,23.96
2019-05-28T18:25:58.408Z,23.95
2019-05-28T18:28:30.977Z,23.93
2019-05-28T18:31:03.407Z,23.88
2019-05-28T18:33:35.727Z,23.82
2019-05-28T18:36:08.041Z,23.76
2019-05-28T18:38:43.483Z,23.67
2019-05-28T18:41:21.611Z,23.58
2019-05-28T18:43:50.122Z,23.52
2019-05-28T18:46:22.598Z,23.46
2019-05-28T18:48:54.969Z,23.51
2019-05-28T18:51:27.229Z,23.43
2019-05-28T18:53:59.595Z,23.40
2019-05-28T18:56:31.952Z,23.34
2019-05-28T18:59:04.393Z,23.29
2019-05-28T19:01:36.779Z,23.28
2019-05-28T19:04:09.036Z,23.22
2019-05-28T19:06:41.438Z,23.18
2019-05-28T19:09:13.819Z,23.17
2019-05-28T19:11:46.226Z,23.11
2019-05-28T19:14:18.621Z,23.08
2019-05-28T19:16:50.883Z,23.07
2019-05-28T19:19:26.962Z,23.02
2019-05-28T19:21:59.555Z,23.01
2019-05-28T19:24:31.964Z,22.90
2019-05-28T19:27:04.360Z,22.84
2019-05-28T19:29:38.852Z,22.81
2019-05-28T19:32:12.026Z,22.80
2019-05-28T19:34:48.532Z,22.74
2019-05-28T19:37:19.767Z,22.69
2019-05-28T19:39:54.525Z,22.69
2019-05-28T19:42:26.995Z,22.68
2019-05-28T19:44:59.519Z,22.64
2019-05-28T19:47:32.112Z,22.63
2019-05-28T19:50:08.794Z,22.65
2019-05-28T19:52:41.422Z,22.56
2019-05-28T19:55:13.702Z,22.50
2019-05-28T19:57:45.903Z,22.47
2019-05-28T20:00:19.665Z,22.42
2019-05-28T20:02:51.929Z,22.38
2019-05-28T20:05:24.855Z,22.33
2019-05-28T20:07:57.099Z,22.36
2019-05-28T20:10:29.381Z,22.35
2019-05-28T20:13:01.696Z,22.29
2019-05-28T20:15:33.978Z,22.26
2019-05-28T20:18:06.231Z,22.24
2019-05-28T20:20:38.522Z,22.25
2019-05-28T20:23:10.758Z,22.18
2019-05-28T20:25:47.486Z,22.13
2019-05-28T20:28:17.945Z,22.07
2019-05-28T20:30:51.813Z,22.06
2019-05-28T20:33:23.995Z,22.00
2019-05-28T20:35:56.411Z,21.96
2019-05-28T20:38:28.727Z,21.92
2019-05-28T20:41:02.080Z,21.89
2019-05-28T20:43:34.421Z,21.93
2019-05-28T20:46:06.819Z,21.89
2019-05-28T20:48:40.567Z,21.90
2019-05-28T20:51:20.972Z,21.92
2019-05-28T20:53:47.381Z,21.83
2019-05-28T20:56:19.745Z,21.79
2019-05-28T20:58:51.987Z,21.76
2019-05-28T21:01:24.262Z,21.75
2019-05-28T21:03:56.534Z,21.66
2019-05-28T21:06:28.782Z,21.67
2019-05-28T21:09:01.037Z,21.70
2019-05-28T21:11:34.924Z,21.62
2019-05-28T21:14:07.241Z,21.66
2019-05-28T21:16:39.502Z,21.66
2019-05-28T21:19:11.685Z,21.61
2019-05-28T21:21:45.118Z,21.53
2019-05-28T21:24:17.365Z,21.45
2019-05-28T21:26:50.040Z,21.41
2019-05-28T21:29:22.307Z,21.39
2019-05-28T21:31:56.544Z,21.32
2019-05-28T21:34:28.752Z,21.21
2019-05-28T21:37:02.615Z,21.17
2019-05-28T21:39:34.898Z,21.15
2019-05-28T21:42:07.136Z,21.07
2019-05-28T21:44:39.408Z,21.03
2019-05-28T21:47:11.738Z,21.03
2019-05-28T21:49:44.144Z,20.94
2019-05-28T21:52:16.464Z,20.88
2019-05-28T21:54:48.683Z,20.79
2019-05-28T21:57:20.989Z,20.74
2019-05-28T21:59:53.575Z,20.68
2019-05-28T22:02:27.098Z,20.72
2019-05-28T22:05:05.667Z,20.74
2019-05-28T22:07:33.894Z,20.72
2019-05-28T22:10:08.588Z,20.59
2019-05-28T22:12:41.134Z,20.59
2019-05-28T22:15:14.814Z,20.53
2019-05-28T22:17:47.063Z,20.51
2019-05-28T22:20:19.405Z,20.47
2019-05-28T22:22:51.838Z,20.44
2019-05-28T22:25:23.879Z,20.42
2019-05-28T22:27:56.584Z,20.46
2019-05-28T22:30:29.216Z,20.43
2019-05-28T22:33:02.278Z,20.37
2019-05-28T22:35:34.668Z,20.33
2019-05-28T22:38:07.530Z,20.29
2019-05-28T22:40:39.879Z,20.22
2019-05-28T22:43:12.151Z,20.19
2019-05-28T22:45:44.474Z,20.13
2019-05-28T22:48:17.938Z,20.13
2019-05-28T22:50:50.631Z,20.08
2019-05-28T22:53:22.968Z,20.00
2019-05-28T22:55:55.176Z,20.00
2019-05-28T22:58:27.590Z,20.01
2019-05-28T23:01:00.390Z,19.92
2019-05-28T23:03:32.813Z,19.90
2019-05-28T23:06:05.408Z,19.85
2019-05-28T23:08:37.814Z,19.77
2019-05-28T23:11:10.125Z,19.76
2019-05-28T23:13:46.713Z,19.74
2019-05-28T23:16:16.390Z,19.75
2019-05-28T23:18:48.718Z,19.76
2019-05-28T23:21:20.954Z,19.76
2019-05-28T23:23:54.225Z,19.77
2019-05-28T23:26:26.511Z,19.78
2019-05-28T23:28:58.729Z,19.76
2019-05-28T23:31:30.976Z,19.74
2019-05-28T23:34:04.296Z,19.74
2019-05-28T23:36:36.565Z,19.73
2019-05-28T23:39:09.092Z,19.69
2019-05-28T23:41:41.330Z,19.66
2019-05-28T23:44:13.931Z,19.60
2019-05-28T23:46:46.277Z,19.63
2019-05-28T23:49:18.486Z,19.59
2019-05-28T23:51:50.820Z,19.64
2019-05-28T23:54:23.057Z,19.55
2019-05-28T23:56:55.427Z,19.60
2019-05-28T23:59:27.625Z,19.59
